sensor_id;sensor_type;location;lat;lon;timestamp;temperature;humidity
64869;DHT22;51349;52.424;10.840;2023-09-19T00:01:29;16.00;99.90
64869;DHT22;51349;52.424;10.840;2023-09-19T00:06:32;15.90;99.90
64869;DHT22;51349;52.424;10.840;2023-09-19T00:11:33;15.80;99.90
64869;DHT22;51349;52.424;10.840;2023-09-19T00:16:35;15.80;99.90
64869;DHT22;51349;52.424;10.840;2023-09-19T00:21:36;15.80;99.90
64869;DHT22;51349;52.424;10.840;2023-09-19T00:26:38;15.70;99.90
64869;DHT22;51349;52.424;10.840;2023-09-19T00:31:38;15.70;99.90
64869;DHT22;51349;52.424;10.840;2023-09-19T00:36:39;15.60;99.90
64869;DHT22;51349;52.424;10.840;2023-09-19T00:41:40;15.60;99.90
64869;DHT22;51349;52.424;10.840;2023-09-19T00:46:41;15.60;99.90
64869;DHT22;51349;52.424;10.840;2023-09-19T00:51:42;15.60;99.90
64869;DHT22;51349;52.424;10.840;2023-09-19T00:56:47;15.60;99.90
64869;DHT22;51349;52.424;10.840;2023-09-19T01:01:49;15.60;99.90
64869;DHT22;51349;52.424;10.840;2023-09-19T01:06:54;15.60;99.90
64869;DHT22;51349;52.424;10.840;2023-09-19T01:11:59;15.60;99.90
64869;DHT22;51349;52.424;10.840;2023-09-19T01:17:14;15.50;99.90
64869;DHT22;51349;52.424;10.840;2023-09-19T01:22:30;15.50;99.90
64869;DHT22;51349;52.424;10.840;2023-09-19T01:33:16;15.40;99.90
64869;DHT22;51349;52.424;10.840;2023-09-19T01:38:17;15.30;99.90
64869;DHT22;51349;52.424;10.840;2023-09-19T01:43:41;15.30;99.90
64869;DHT22;51349;52.424;10.840;2023-09-19T01:49:03;15.20;99.90
64869;DHT22;51349;52.424;10.840;2023-09-19T01:54:10;15.30;99.90
64869;DHT22;51349;52.424;10.840;2023-09-19T01:59:16;15.30;99.90
64869;DHT22;51349;52.424;10.840;2023-09-19T02:04:18;15.30;99.90
64869;DHT22;51349;52.424;10.840;2023-09-19T02:09:18;15.40;99.90
64869;DHT22;51349;52.424;10.840;2023-09-19T02:14:19;15.40;99.90
64869;DHT22;51349;52.424;10.840;2023-09-19T02:19:20;15.40;99.90
64869;DHT22;51349;52.424;10.840;2023-09-19T02:24:21;15.40;99.90
64869;DHT22;51349;52.424;10.840;2023-09-19T02:29:22;15.50;99.90
64869;DHT22;51349;52.424;10.840;2023-09-19T02:34:23;15.50;99.90
64869;DHT22;51349;52.424;10.840;2023-09-19T02:39:23;15.50;99.90
64869;DHT22;51349;52.424;10.840;2023-09-19T02:44:24;15.50;99.90
64869;DHT22;51349;52.424;10.840;2023-09-19T02:49:25;15.40;99.90
64869;DHT22;51349;52.424;10.840;2023-09-19T02:54:25;15.40;99.90
64869;DHT22;51349;52.424;10.840;2023-09-19T02:59:26;15.30;99.90
64869;DHT22;51349;52.424;10.840;2023-09-19T03:04:28;15.20;99.90
64869;DHT22;51349;52.424;10.840;2023-09-19T03:09:29;15.20;99.90
64869;DHT22;51349;52.424;10.840;2023-09-19T03:14:30;15.10;99.90
64869;DHT22;51349;52.424;10.840;2023-09-19T03:19:35;15.10;99.90
64869;DHT22;51349;52.424;10.840;2023-09-19T03:24:37;15.10;99.90
64869;DHT22;51349;52.424;10.840;2023-09-19T03:29:38;15.00;99.90
64869;DHT22;51349;52.424;10.840;2023-09-19T03:34:39;15.00;99.90
64869;DHT22;51349;52.424;10.840;2023-09-19T03:39:44;14.90;99.90
64869;DHT22;51349;52.424;10.840;2023-09-19T03:44:44;14.80;99.90
64869;DHT22;51349;52.424;10.840;2023-09-19T03:49:45;14.80;99.90
64869;DHT22;51349;52.424;10.840;2023-09-19T03:54:45;14.80;99.90
64869;DHT22;51349;52.424;10.840;2023-09-19T03:59:46;14.80;99.90
64869;DHT22;51349;52.424;10.840;2023-09-19T04:04:56;14.70;99.90
64869;DHT22;51349;52.424;10.840;2023-09-19T04:09:57;14.70;99.90
64869;DHT22;51349;52.424;10.840;2023-09-19T04:14:57;14.60;99.90
64869;DHT22;51349;52.424;10.840;2023-09-19T04:19:58;14.60;99.90
64869;DHT22;51349;52.424;10.840;2023-09-19T04:24:59;14.70;99.90
64869;DHT22;51349;52.424;10.840;2023-09-19T04:30:00;14.70;99.90
64869;DHT22;51349;52.424;10.840;2023-09-19T04:35:10;14.70;99.90
64869;DHT22;51349;52.424;10.840;2023-09-19T04:40:11;14.70;99.90
64869;DHT22;51349;52.424;10.840;2023-09-19T04:45:17;14.80;99.90
64869;DHT22;51349;52.424;10.840;2023-09-19T04:50:20;14.80;99.90
64869;DHT22;51349;52.424;10.840;2023-09-19T04:55:28;14.80;99.90
64869;DHT22;51349;52.424;10.840;2023-09-19T05:00:30;14.80;99.90
64869;DHT22;51349;52.424;10.840;2023-09-19T05:05:35;14.80;99.90
64869;DHT22;51349;52.424;10.840;2023-09-19T05:10:36;14.70;99.90
64869;DHT22;51349;52.424;10.840;2023-09-19T05:15:39;14.60;99.90
64869;DHT22;51349;52.424;10.840;2023-09-19T05:20:40;14.70;99.90
64869;DHT22;51349;52.424;10.840;2023-09-19T05:25:41;14.70;99.90
64869;DHT22;51349;52.424;10.840;2023-09-19T05:30:43;14.70;99.90
64869;DHT22;51349;52.424;10.840;2023-09-19T05:35:44;14.70;99.90
64869;DHT22;51349;52.424;10.840;2023-09-19T05:40:47;14.80;99.90
64869;DHT22;51349;52.424;10.840;2023-09-19T05:45:48;14.80;99.90
64869;DHT22;51349;52.424;10.840;2023-09-19T05:50:49;14.80;99.90
64869;DHT22;51349;52.424;10.840;2023-09-19T05:55:50;14.80;99.90
64869;DHT22;51349;52.424;10.840;2023-09-19T06:00:52;14.70;99.90
64869;DHT22;51349;52.424;10.840;2023-09-19T06:05:53;14.70;99.90
64869;DHT22;51349;52.424;10.840;2023-09-19T06:10:57;14.60;99.90
64869;DHT22;51349;52.424;10.840;2023-09-19T06:15:58;14.60;99.90
64869;DHT22;51349;52.424;10.840;2023-09-19T06:20:59;14.60;99.90
64869;DHT22;51349;52.424;10.840;2023-09-19T06:26:00;14.60;99.90
64869;DHT22;51349;52.424;10.840;2023-09-19T06:31:02;14.70;99.90
64869;DHT22;51349;52.424;10.840;2023-09-19T06:36:03;14.80;99.90
64869;DHT22;51349;52.424;10.840;2023-09-19T06:41:05;15.00;99.90
64869;DHT22;51349;52.424;10.840;2023-09-19T06:46:06;15.30;99.90
64869;DHT22;51349;52.424;10.840;2023-09-19T06:51:07;15.40;99.90
64869;DHT22;51349;52.424;10.840;2023-09-19T06:56:08;15.70;99.90
64869;DHT22;51349;52.424;10.840;2023-09-19T07:01:09;16.00;99.90
64869;DHT22;51349;52.424;10.840;2023-09-19T07:06:09;16.10;99.90
64869;DHT22;51349;52.424;10.840;2023-09-19T07:11:10;16.10;99.90
64869;DHT22;51349;52.424;10.840;2023-09-19T07:16:12;16.30;99.90
64869;DHT22;51349;52.424;10.840;2023-09-19T07:21:28;16.40;99.90
64869;DHT22;51349;52.424;10.840;2023-09-19T07:26:28;16.50;99.90
64869;DHT22;51349;52.424;10.840;2023-09-19T07:31:29;16.60;99.90
64869;DHT22;51349;52.424;10.840;2023-09-19T07:36:31;16.70;99.90
64869;DHT22;51349;52.424;10.840;2023-09-19T07:41:33;16.70;99.90
64869;DHT22;51349;52.424;10.840;2023-09-19T07:46:34;16.90;99.90
64869;DHT22;51349;52.424;10.840;2023-09-19T07:51:34;17.00;99.90
64869;DHT22;51349;52.424;10.840;2023-09-19T07:56:35;17.20;99.90
64869;DHT22;51349;52.424;10.840;2023-09-19T08:01:35;17.50;99.90
64869;DHT22;51349;52.424;10.840;2023-09-19T08:06:37;17.80;99.90
64869;DHT22;51349;52.424;10.840;2023-09-19T08:11:39;18.30;99.90
64869;DHT22;51349;52.424;10.840;2023-09-19T08:16:40;18.50;99.90
64869;DHT22;51349;52.424;10.840;2023-09-19T08:21:43;19.10;99.90
64869;DHT22;51349;52.424;10.840;2023-09-19T08:26:47;19.30;99.90
64869;DHT22;51349;52.424;10.840;2023-09-19T08:31:48;19.30;99.90
64869;DHT22;51349;52.424;10.840;2023-09-19T08:36:54;19.40;99.90
64869;DHT22;51349;52.424;10.840;2023-09-19T08:41:58;19.20;99.90
64869;DHT22;51349;52.424;10.840;2023-09-19T08:47:10;18.90;99.90
64869;DHT22;51349;52.424;10.840;2023-09-19T08:52:32;19.70;99.90
64869;DHT22;51349;52.424;10.840;2023-09-19T08:57:36;19.20;99.90
64869;DHT22;51349;52.424;10.840;2023-09-19T09:02:39;18.90;99.90
64869;DHT22;51349;52.424;10.840;2023-09-19T09:07:43;18.90;99.90
64869;DHT22;51349;52.424;10.840;2023-09-19T09:12:45;19.10;99.90
64869;DHT22;51349;52.424;10.840;2023-09-19T09:17:47;19.00;99.90
64869;DHT22;51349;52.424;10.840;2023-09-19T09:22:54;19.20;99.90
64869;DHT22;51349;52.424;10.840;2023-09-19T09:28:02;19.30;99.90
64869;DHT22;51349;52.424;10.840;2023-09-19T09:33:10;19.50;99.90
64869;DHT22;51349;52.424;10.840;2023-09-19T09:38:11;19.80;99.90
64869;DHT22;51349;52.424;10.840;2023-09-19T09:43:25;20.00;99.90
64869;DHT22;51349;52.424;10.840;2023-09-19T09:48:28;19.90;99.90
64869;DHT22;51349;52.424;10.840;2023-09-19T09:53:32;20.60;99.90
64869;DHT22;51349;52.424;10.840;2023-09-19T09:58:37;20.40;99.90
64869;DHT22;51349;52.424;10.840;2023-09-19T10:03:41;20.30;99.90
64869;DHT22;51349;52.424;10.840;2023-09-19T10:14:06;19.30;99.90
64869;DHT22;51349;52.424;10.840;2023-09-19T10:19:11;19.50;99.90
64869;DHT22;51349;52.424;10.840;2023-09-19T10:24:15;19.40;99.90
64869;DHT22;51349;52.424;10.840;2023-09-19T10:29:17;19.60;99.90
64869;DHT22;51349;52.424;10.840;2023-09-19T10:34:20;19.70;99.90
64869;DHT22;51349;52.424;10.840;2023-09-19T10:39:23;19.90;99.90
64869;DHT22;51349;52.424;10.840;2023-09-19T10:44:25;19.50;99.90
64869;DHT22;51349;52.424;10.840;2023-09-19T10:49:25;19.30;99.90
64869;DHT22;51349;52.424;10.840;2023-09-19T10:54:32;19.50;99.90
64869;DHT22;51349;52.424;10.840;2023-09-19T10:59:37;19.90;99.90
64869;DHT22;51349;52.424;10.840;2023-09-19T11:04:50;19.70;99.90
64869;DHT22;51349;52.424;10.840;2023-09-19T11:09:54;19.30;99.90
64869;DHT22;51349;52.424;10.840;2023-09-19T11:14:58;19.00;99.90
64869;DHT22;51349;52.424;10.840;2023-09-19T11:30:30;19.00;99.90
64869;DHT22;51349;52.424;10.840;2023-09-19T11:46:23;19.30;99.90
64869;DHT22;51349;52.424;10.840;2023-09-19T11:51:24;19.20;99.90
64869;DHT22;51349;52.424;10.840;2023-09-19T11:56:28;19.30;99.90
64869;DHT22;51349;52.424;10.840;2023-09-19T12:01:32;19.20;99.90
64869;DHT22;51349;52.424;10.840;2023-09-19T12:06:35;19.20;99.90
64869;DHT22;51349;52.424;10.840;2023-09-19T12:11:42;19.30;99.90
64869;DHT22;51349;52.424;10.840;2023-09-19T12:16:57;19.30;99.90
64869;DHT22;51349;52.424;10.840;2023-09-19T12:22:03;19.40;99.90
64869;DHT22;51349;52.424;10.840;2023-09-19T12:27:07;19.50;99.90
64869;DHT22;51349;52.424;10.840;2023-09-19T12:32:08;19.50;99.90
64869;DHT22;51349;52.424;10.840;2023-09-19T12:37:13;19.90;99.90
64869;DHT22;51349;52.424;10.840;2023-09-19T12:42:24;19.70;99.90
64869;DHT22;51349;52.424;10.840;2023-09-19T12:47:29;19.80;99.90
64869;DHT22;51349;52.424;10.840;2023-09-19T12:52:35;19.90;99.90
64869;DHT22;51349;52.424;10.840;2023-09-19T12:57:36;20.00;99.90
64869;DHT22;51349;52.424;10.840;2023-09-19T13:08:24;19.80;99.90
64869;DHT22;51349;52.424;10.840;2023-09-19T13:13:33;19.70;99.90
64869;DHT22;51349;52.424;10.840;2023-09-19T13:23:45;19.70;99.90
64869;DHT22;51349;52.424;10.840;2023-09-19T13:28:46;19.50;99.90
64869;DHT22;51349;52.424;10.840;2023-09-19T13:33:48;19.50;99.90
64869;DHT22;51349;52.424;10.840;2023-09-19T13:38:50;19.40;99.90
64869;DHT22;51349;52.424;10.840;2023-09-19T13:43:53;19.50;99.90
64869;DHT22;51349;52.424;10.840;2023-09-19T13:48:59;19.60;99.90
64869;DHT22;51349;52.424;10.840;2023-09-19T13:53:59;19.80;99.90
64869;DHT22;51349;52.424;10.840;2023-09-19T13:59:00;19.90;99.90
64869;DHT22;51349;52.424;10.840;2023-09-19T14:04:01;19.70;99.90
64869;DHT22;51349;52.424;10.840;2023-09-19T14:09:03;19.80;99.90
64869;DHT22;51349;52.424;10.840;2023-09-19T14:14:04;19.90;99.90
64869;DHT22;51349;52.424;10.840;2023-09-19T14:19:05;19.90;99.90
64869;DHT22;51349;52.424;10.840;2023-09-19T14:24:06;20.00;99.90
64869;DHT22;51349;52.424;10.840;2023-09-19T14:29:09;20.00;99.90
64869;DHT22;51349;52.424;10.840;2023-09-19T14:34:12;20.10;99.90
64869;DHT22;51349;52.424;10.840;2023-09-19T14:39:12;20.10;99.90
64869;DHT22;51349;52.424;10.840;2023-09-19T14:44:13;20.20;99.90
64869;DHT22;51349;52.424;10.840;2023-09-19T14:49:16;20.20;99.90
64869;DHT22;51349;52.424;10.840;2023-09-19T14:54:17;20.20;99.90
64869;DHT22;51349;52.424;10.840;2023-09-19T14:59:17;20.10;99.90
64869;DHT22;51349;52.424;10.840;2023-09-19T15:04:19;20.60;99.90
64869;DHT22;51349;52.424;10.840;2023-09-19T15:09:24;20.40;99.90
64869;DHT22;51349;52.424;10.840;2023-09-19T15:14:28;20.50;99.90
64869;DHT22;51349;52.424;10.840;2023-09-19T15:19:30;20.30;99.90
64869;DHT22;51349;52.424;10.840;2023-09-19T15:24:31;20.30;99.90
64869;DHT22;51349;52.424;10.840;2023-09-19T15:29:31;20.10;99.90
64869;DHT22;51349;52.424;10.840;2023-09-19T15:34:32;19.80;99.90
64869;DHT22;51349;52.424;10.840;2023-09-19T15:39:33;19.60;99.90
64869;DHT22;51349;52.424;10.840;2023-09-19T15:44:34;19.50;99.90
64869;DHT22;51349;52.424;10.840;2023-09-19T15:49:35;19.50;99.90
64869;DHT22;51349;52.424;10.840;2023-09-19T15:54:35;19.50;99.90
64869;DHT22;51349;52.424;10.840;2023-09-19T15:59:42;19.50;99.90
64869;DHT22;51349;52.424;10.840;2023-09-19T16:04:45;19.70;99.90
64869;DHT22;51349;52.424;10.840;2023-09-19T16:09:45;20.50;99.90
64869;DHT22;51349;52.424;10.840;2023-09-19T16:14:46;20.80;99.90
64869;DHT22;51349;52.424;10.840;2023-09-19T16:19:47;21.00;99.70
64869;DHT22;51349;52.424;10.840;2023-09-19T16:24:48;20.80;99.90
64869;DHT22;51349;52.424;10.840;2023-09-19T16:29:48;20.10;99.90
64869;DHT22;51349;52.424;10.840;2023-09-19T16:34:49;19.50;99.90
64869;DHT22;51349;52.424;10.840;2023-09-19T16:39:49;19.30;99.90
64869;DHT22;51349;52.424;10.840;2023-09-19T16:44:50;19.20;99.90
64869;DHT22;51349;52.424;10.840;2023-09-19T16:49:51;19.00;99.90
64869;DHT22;51349;52.424;10.840;2023-09-19T16:54:53;18.90;99.90
64869;DHT22;51349;52.424;10.840;2023-09-19T16:59:54;18.80;99.90
64869;DHT22;51349;52.424;10.840;2023-09-19T17:04:55;18.60;99.90
64869;DHT22;51349;52.424;10.840;2023-09-19T17:09:56;18.50;99.90
64869;DHT22;51349;52.424;10.840;2023-09-19T17:14:56;18.40;99.90
64869;DHT22;51349;52.424;10.840;2023-09-19T17:19:57;18.40;99.90
64869;DHT22;51349;52.424;10.840;2023-09-19T17:24:58;18.30;99.90
64869;DHT22;51349;52.424;10.840;2023-09-19T17:29:59;18.20;99.90
64869;DHT22;51349;52.424;10.840;2023-09-19T17:34:59;18.20;99.90
64869;DHT22;51349;52.424;10.840;2023-09-19T17:40:00;18.10;99.90
64869;DHT22;51349;52.424;10.840;2023-09-19T17:45:05;18.20;99.90
64869;DHT22;51349;52.424;10.840;2023-09-19T17:50:06;18.00;99.90
64869;DHT22;51349;52.424;10.840;2023-09-19T17:55:10;17.90;99.90
64869;DHT22;51349;52.424;10.840;2023-09-19T18:00:12;17.80;99.90
64869;DHT22;51349;52.424;10.840;2023-09-19T18:05:15;17.60;99.90
64869;DHT22;51349;52.424;10.840;2023-09-19T18:10:16;17.50;99.90
64869;DHT22;51349;52.424;10.840;2023-09-19T18:15:17;17.50;99.90
64869;DHT22;51349;52.424;10.840;2023-09-19T18:20:18;17.40;99.90
64869;DHT22;51349;52.424;10.840;2023-09-19T18:25:19;17.40;99.90
64869;DHT22;51349;52.424;10.840;2023-09-19T18:30:20;17.30;99.90
64869;DHT22;51349;52.424;10.840;2023-09-19T18:35:21;17.20;99.90
64869;DHT22;51349;52.424;10.840;2023-09-19T18:40:24;17.20;99.90
64869;DHT22;51349;52.424;10.840;2023-09-19T18:45:25;17.00;99.90
64869;DHT22;51349;52.424;10.840;2023-09-19T18:50:25;16.90;99.90
64869;DHT22;51349;52.424;10.840;2023-09-19T18:55:26;16.80;99.90
64869;DHT22;51349;52.424;10.840;2023-09-19T19:00:27;16.80;99.90
64869;DHT22;51349;52.424;10.840;2023-09-19T19:05:31;16.80;99.90
64869;DHT22;51349;52.424;10.840;2023-09-19T19:10:36;16.80;99.90
64869;DHT22;51349;52.424;10.840;2023-09-19T19:15:38;16.80;99.90
64869;DHT22;51349;52.424;10.840;2023-09-19T19:20:39;16.90;99.90
64869;DHT22;51349;52.424;10.840;2023-09-19T19:25:48;16.90;99.90
64869;DHT22;51349;52.424;10.840;2023-09-19T19:30:48;16.90;99.90
64869;DHT22;51349;52.424;10.840;2023-09-19T19:35:51;17.00;99.90
64869;DHT22;51349;52.424;10.840;2023-09-19T19:41:01;17.00;99.90
64869;DHT22;51349;52.424;10.840;2023-09-19T19:46:04;17.00;99.90
64869;DHT22;51349;52.424;10.840;2023-09-19T19:51:06;16.90;99.90
64869;DHT22;51349;52.424;10.840;2023-09-19T19:56:10;16.90;99.90
64869;DHT22;51349;52.424;10.840;2023-09-19T20:01:10;16.80;99.90
64869;DHT22;51349;52.424;10.840;2023-09-19T20:06:11;16.70;99.90
64869;DHT22;51349;52.424;10.840;2023-09-19T20:11:13;16.70;99.90
64869;DHT22;51349;52.424;10.840;2023-09-19T20:16:14;16.70;99.90
64869;DHT22;51349;52.424;10.840;2023-09-19T20:21:15;16.60;99.90
64869;DHT22;51349;52.424;10.840;2023-09-19T20:26:15;16.60;99.90
64869;DHT22;51349;52.424;10.840;2023-09-19T20:31:16;16.60;99.90
64869;DHT22;51349;52.424;10.840;2023-09-19T20:36:17;16.60;99.90
64869;DHT22;51349;52.424;10.840;2023-09-19T20:41:17;16.60;99.90
64869;DHT22;51349;52.424;10.840;2023-09-19T20:46:18;16.60;99.90
64869;DHT22;51349;52.424;10.840;2023-09-19T20:51:19;16.60;99.90
64869;DHT22;51349;52.424;10.840;2023-09-19T20:56:25;16.60;99.90
64869;DHT22;51349;52.424;10.840;2023-09-19T21:01:26;16.60;99.90
64869;DHT22;51349;52.424;10.840;2023-09-19T21:06:26;16.50;99.90
64869;DHT22;51349;52.424;10.840;2023-09-19T21:11:28;16.50;99.90
64869;DHT22;51349;52.424;10.840;2023-09-19T21:16:28;16.50;99.90
64869;DHT22;51349;52.424;10.840;2023-09-19T21:21:34;16.40;99.90
64869;DHT22;51349;52.424;10.840;2023-09-19T21:26:35;16.40;99.90
64869;DHT22;51349;52.424;10.840;2023-09-19T21:31:36;16.40;99.90
64869;DHT22;51349;52.424;10.840;2023-09-19T21:36:36;16.40;99.90
64869;DHT22;51349;52.424;10.840;2023-09-19T21:41:37;16.40;99.90
64869;DHT22;51349;52.424;10.840;2023-09-19T21:46:38;16.40;99.90
64869;DHT22;51349;52.424;10.840;2023-09-19T21:51:39;16.30;99.90
64869;DHT22;51349;52.424;10.840;2023-09-19T21:56:40;16.40;99.90
64869;DHT22;51349;52.424;10.840;2023-09-19T22:01:42;16.40;99.90
64869;DHT22;51349;52.424;10.840;2023-09-19T22:06:42;16.40;99.90
64869;DHT22;51349;52.424;10.840;2023-09-19T22:11:43;16.40;99.90
64869;DHT22;51349;52.424;10.840;2023-09-19T22:16:44;16.40;99.90
64869;DHT22;51349;52.424;10.840;2023-09-19T22:21:46;16.40;99.90
64869;DHT22;51349;52.424;10.840;2023-09-19T22:26:50;16.50;99.90
64869;DHT22;51349;52.424;10.840;2023-09-19T22:31:51;16.70;99.90
64869;DHT22;51349;52.424;10.840;2023-09-19T22:36:52;16.60;99.90
64869;DHT22;51349;52.424;10.840;2023-09-19T22:41:55;16.70;99.90
64869;DHT22;51349;52.424;10.840;2023-09-19T22:47:01;16.80;99.90
64869;DHT22;51349;52.424;10.840;2023-09-19T22:52:03;16.70;99.90
64869;DHT22;51349;52.424;10.840;2023-09-19T22:57:04;16.70;99.90
64869;DHT22;51349;52.424;10.840;2023-09-19T23:02:09;16.70;99.90
64869;DHT22;51349;52.424;10.840;2023-09-19T23:07:13;16.80;99.90
64869;DHT22;51349;52.424;10.840;2023-09-19T23:12:14;16.70;99.90
64869;DHT22;51349;52.424;10.840;2023-09-19T23:17:19;16.70;99.90
64869;DHT22;51349;52.424;10.840;2023-09-19T23:22:23;16.60;99.90
64869;DHT22;51349;52.424;10.840;2023-09-19T23:27:25;16.60;99.90
64869;DHT22;51349;52.424;10.840;2023-09-19T23:32:27;16.60;99.90
64869;DHT22;51349;52.424;10.840;2023-09-19T23:37:28;16.60;99.90
64869;DHT22;51349;52.424;10.840;2023-09-19T23:42:29;16.60;99.90
64869;DHT22;51349;52.424;10.840;2023-09-19T23:47:31;16.60;99.90
64869;DHT22;51349;52.424;10.840;2023-09-19T23:52:31;16.60;99.90
64869;DHT22;51349;52.424;10.840;2023-09-19T23:57:32;16.60;99.90
